createdAt,value
2022-09-15T00:00:30.397Z,63.00
2022-09-15T00:03:32.246Z,65.52
2022-09-15T00:06:34.465Z,66.81
2022-09-15T00:09:36.260Z,61.50
2022-09-15T00:12:38.057Z,61.20
2022-09-15T00:15:39.859Z,64.47
2022-09-15T00:18:41.655Z,66.99
2022-09-15T00:21:43.505Z,62.23
2022-09-15T00:24:46.052Z,65.67
2022-09-15T00:27:47.849Z,64.92
2022-09-15T00:30:53.489Z,62.50
2022-09-15T00:33:56.281Z,61.14
2022-09-15T00:36:58.126Z,66.13
2022-09-15T00:39:59.968Z,62.02
2022-09-15T00:43:01.789Z,61.08
2022-09-15T00:46:03.723Z,61.04
2022-09-15T00:49:09.805Z,60.76
2022-09-15T00:52:16.136Z,61.47
2022-09-15T00:55:22.738Z,63.83
2022-09-15T00:58:26.143Z,61.27
2022-09-15T01:01:28.148Z,61.19
2022-09-15T01:04:30.038Z,62.44
2022-09-15T01:07:36.153Z,64.08
2022-09-15T01:10:38.847Z,65.61
2022-09-15T01:13:40.643Z,66.46
2022-09-15T01:16:45.496Z,63.01
2022-09-15T01:20:01.037Z,61.21
2022-09-15T01:23:23.722Z,62.84
2022-09-15T01:26:44.212Z,61.09
2022-09-15T01:29:52.205Z,61.55
2022-09-15T01:33:06.729Z,64.22
2022-09-15T01:36:13.855Z,64.42
2022-09-15T01:39:20.875Z,67.64
2022-09-15T01:42:22.655Z,65.04
2022-09-15T01:45:29.958Z,64.24
2022-09-15T01:48:31.753Z,62.42
2022-09-15T01:51:33.585Z,64.49
2022-09-15T01:54:36.122Z,62.92
2022-09-15T01:57:37.896Z,63.52
2022-09-15T02:00:41.751Z,65.45
2022-09-15T02:03:49.204Z,64.29
2022-09-15T02:06:57.142Z,60.71
2022-09-15T02:10:01.643Z,64.92
2022-09-15T02:13:17.016Z,63.75
2022-09-15T02:16:20.225Z,61.97
2022-09-15T02:19:23.330Z,60.67
2022-09-15T02:22:29.612Z,61.68
2022-09-15T02:25:32.773Z,61.36
2022-09-15T02:28:36.608Z,59.31
2022-09-15T02:31:39.412Z,59.20
2022-09-15T02:34:42.325Z,61.87
2022-09-15T02:37:44.107Z,63.71
2022-09-15T02:40:45.899Z,62.46
2022-09-15T02:43:47.869Z,61.67
2022-09-15T02:46:49.697Z,60.74
2022-09-15T02:49:51.495Z,64.16
2022-09-15T02:52:54.103Z,62.78
2022-09-15T02:55:56.255Z,63.42
2022-09-15T02:58:58.045Z,65.73
2022-09-15T03:02:00.348Z,66.96
2022-09-15T03:05:02.199Z,67.73
2022-09-15T03:08:03.990Z,66.39
2022-09-15T03:11:06.529Z,66.68
2022-09-15T03:14:08.854Z,67.12
2022-09-15T03:17:10.713Z,64.71
2022-09-15T03:20:13.986Z,62.93
2022-09-15T03:23:15.794Z,65.36
2022-09-15T03:26:17.603Z,62.61
2022-09-15T03:29:19.454Z,63.55
2022-09-15T03:32:21.234Z,61.67
2022-09-15T03:35:23.023Z,61.14
2022-09-15T03:38:24.878Z,59.74
2022-09-15T03:41:27.837Z,58.26
2022-09-15T03:44:29.645Z,60.17
2022-09-15T03:47:32.771Z,61.64
2022-09-15T03:50:34.619Z,60.59
2022-09-15T03:53:37.666Z,61.75
2022-09-15T03:56:39.461Z,59.84
2022-09-15T03:59:41.452Z,59.35
2022-09-15T04:02:43.258Z,62.21
2022-09-15T04:05:45.093Z,65.71
2022-09-15T04:08:47.048Z,60.76
2022-09-15T04:11:48.829Z,61.17
2022-09-15T04:14:50.638Z,61.38
2022-09-15T04:17:52.494Z,66.08
2022-09-15T04:20:54.431Z,65.04
2022-09-15T04:23:56.212Z,61.52
2022-09-15T04:26:58.019Z,63.12
2022-09-15T04:29:59.981Z,61.14
2022-09-15T04:33:02.774Z,58.74
2022-09-15T04:36:08.556Z,59.71
2022-09-15T04:39:10.383Z,58.62
2022-09-15T04:42:12.210Z,61.40
2022-09-15T04:45:13.987Z,60.88
2022-09-15T04:48:15.786Z,63.04
2022-09-15T04:51:19.084Z,63.66
2022-09-15T04:54:20.965Z,63.77
2022-09-15T04:57:22.758Z,64.57
2022-09-15T05:00:27.076Z,61.00
2022-09-15T05:03:29.088Z,62.33
2022-09-15T05:06:31.022Z,63.81
2022-09-15T05:09:32.822Z,66.11
2022-09-15T05:12:34.783Z,62.73
2022-09-15T05:15:36.672Z,63.82
2022-09-15T05:18:38.959Z,63.15
2022-09-15T05:21:40.801Z,62.93
2022-09-15T05:24:42.570Z,62.78
2022-09-15T05:27:44.453Z,63.43
2022-09-15T05:30:46.265Z,65.20
2022-09-15T05:33:48.544Z,65.23
2022-09-15T05:36:50.360Z,65.83
2022-09-15T05:39:52.214Z,66.72
2022-09-15T05:42:54.098Z,64.52
2022-09-15T05:45:55.957Z,67.75
2022-09-15T05:48:58.087Z,62.75
2022-09-15T05:52:00.333Z,59.19
2022-09-15T05:55:02.209Z,58.20
2022-09-15T05:58:04.087Z,58.16
2022-09-15T06:01:11.195Z,54.74
2022-09-15T06:04:13.074Z,58.26
2022-09-15T06:07:16.749Z,55.42
2022-09-15T06:10:18.612Z,55.70
2022-09-15T06:13:20.461Z,53.95
2022-09-15T06:16:23.333Z,54.78
2022-09-15T06:19:25.481Z,54.87
2022-09-15T06:22:28.029Z,53.99
2022-09-15T06:25:30.082Z,54.00
2022-09-15T06:28:32.468Z,56.81
2022-09-15T06:31:34.402Z,62.56
2022-09-15T06:34:36.319Z,58.54
2022-09-15T06:37:38.146Z,55.18
2022-09-15T06:40:39.929Z,57.13
2022-09-15T06:43:44.948Z,54.73
2022-09-15T06:46:46.951Z,55.65
2022-09-15T06:49:48.825Z,58.78
2022-09-15T06:52:50.688Z,57.08
2022-09-15T06:55:52.606Z,58.37
2022-09-15T06:58:56.074Z,59.18
2022-09-15T07:02:02.653Z,55.40
2022-09-15T07:05:06.981Z,58.08
2022-09-15T07:08:09.224Z,60.48
2022-09-15T07:11:11.058Z,59.23
2022-09-15T07:14:12.955Z,56.05
2022-09-15T07:17:14.946Z,61.18
2022-09-15T07:20:16.986Z,59.59
2022-09-15T07:23:19.243Z,59.29
2022-09-15T07:26:21.957Z,57.77
2022-09-15T07:29:23.796Z,55.36
2022-09-15T07:32:25.634Z,50.92
2022-09-15T07:35:27.421Z,48.32
2022-09-15T07:38:29.344Z,44.16
2022-09-15T07:41:31.643Z,42.53
2022-09-15T07:44:33.533Z,40.13
2022-09-15T07:47:35.487Z,39.85
2022-09-15T07:50:37.328Z,39.74
2022-09-15T07:53:39.151Z,44.75
2022-09-15T07:56:41.090Z,44.93
2022-09-15T07:59:43.162Z,44.88
2022-09-15T08:02:44.942Z,42.86
2022-09-15T08:05:46.888Z,45.63
2022-09-15T08:08:49.162Z,46.85
2022-09-15T08:11:50.994Z,46.05
2022-09-15T08:14:52.880Z,48.42
2022-09-15T08:17:54.700Z,43.98
2022-09-15T08:20:56.528Z,43.65
2022-09-15T08:23:58.971Z,43.55
2022-09-15T08:27:00.874Z,42.09
2022-09-15T08:30:03.033Z,40.57
2022-09-15T08:33:04.842Z,42.85
2022-09-15T08:36:08.642Z,40.96
2022-09-15T08:39:10.621Z,39.26
2022-09-15T08:42:16.006Z,36.82
2022-09-15T08:45:23.856Z,35.00
2022-09-15T08:48:27.206Z,34.74
2022-09-15T08:51:31.508Z,35.50
2022-09-15T08:54:33.336Z,39.14
2022-09-15T08:57:35.185Z,37.24
2022-09-15T09:00:37.034Z,33.22
2022-09-15T09:03:45.377Z,34.40
2022-09-15T09:07:05.709Z,29.73
2022-09-15T09:10:16.934Z,31.79
2022-09-15T09:13:35.674Z,30.42
2022-09-15T09:16:53.025Z,29.70
2022-09-15T09:19:58.296Z,32.46
2022-09-15T09:23:01.633Z,31.91
2022-09-15T09:26:05.502Z,29.91
2022-09-15T09:29:21.199Z,31.68
2022-09-15T09:32:26.492Z,29.97
2022-09-15T09:35:48.715Z,31.46
2022-09-15T09:38:50.628Z,29.84
2022-09-15T09:41:52.421Z,31.14
2022-09-15T09:44:54.376Z,27.69
2022-09-15T09:48:01.665Z,30.51
2022-09-15T09:51:03.845Z,31.22
2022-09-15T09:54:06.719Z,32.93
2022-09-15T09:57:14.703Z,31.36
2022-09-15T10:00:37.658Z,32.59
2022-09-15T10:03:41.817Z,35.92
2022-09-15T10:06:44.235Z,35.64
2022-09-15T10:09:53.313Z,38.19
2022-09-15T10:12:55.646Z,38.74
2022-09-15T10:15:58.980Z,37.99
2022-09-15T10:19:00.780Z,36.19
2022-09-15T10:22:02.658Z,38.04
2022-09-15T10:25:20.601Z,36.58
2022-09-15T10:28:23.765Z,35.25
2022-09-15T10:31:28.685Z,35.01
2022-09-15T10:34:31.104Z,34.79
2022-09-15T10:37:48.315Z,34.81
2022-09-15T10:40:56.681Z,34.54
2022-09-15T10:44:17.697Z,35.18
2022-09-15T10:47:30.112Z,35.01
2022-09-15T10:50:47.353Z,34.37
2022-09-15T10:53:57.722Z,36.92
2022-09-15T10:57:19.884Z,36.42
2022-09-15T11:00:22.770Z,35.39
2022-09-15T11:03:38.728Z,36.03
2022-09-15T11:06:40.735Z,37.37
2022-09-15T11:10:03.995Z,37.92
2022-09-15T11:13:20.951Z,37.13
2022-09-15T11:16:41.649Z,35.58
2022-09-15T11:19:46.800Z,35.61
2022-09-15T11:23:08.544Z,37.52
2022-09-15T11:26:13.217Z,37.14
2022-09-15T11:29:20.761Z,39.79
2022-09-15T11:32:24.986Z,38.11
2022-09-15T11:35:31.251Z,39.70
2022-09-15T11:38:35.972Z,40.21
2022-09-15T11:41:51.083Z,42.02
2022-09-15T11:44:53.162Z,45.39
2022-09-15T11:47:59.117Z,42.91
2022-09-15T11:51:04.710Z,44.72
2022-09-15T11:54:09.761Z,43.77
2022-09-15T11:57:15.845Z,43.38
2022-09-15T12:00:17.939Z,44.81
2022-09-15T12:03:40.386Z,48.36
2022-09-15T12:06:53.645Z,43.67
2022-09-15T12:09:56.015Z,47.47
2022-09-15T12:12:58.413Z,43.99
2022-09-15T12:16:01.032Z,43.38
2022-09-15T12:19:06.117Z,46.10
2022-09-15T12:22:24.141Z,45.83
2022-09-15T12:25:46.217Z,46.27
2022-09-15T12:28:58.166Z,46.98
2022-09-15T12:32:26.971Z,49.17
2022-09-15T12:35:30.155Z,50.97
2022-09-15T12:38:32.024Z,49.67
2022-09-15T12:41:36.166Z,47.55
2022-09-15T12:44:40.804Z,50.30
2022-09-15T12:47:49.311Z,52.72
2022-09-15T12:50:58.731Z,55.06
2022-09-15T12:54:07.346Z,55.44
2022-09-15T12:57:25.937Z,52.02
2022-09-15T13:00:31.205Z,52.24
2022-09-15T13:03:42.090Z,54.37
2022-09-15T13:06:44.162Z,57.30
2022-09-15T13:09:56.173Z,66.00
2022-09-15T13:13:12.081Z,74.12
2022-09-15T13:16:34.164Z,65.97
2022-09-15T13:20:03.084Z,74.28
2022-09-15T13:23:05.758Z,72.73
2022-09-15T13:26:08.562Z,79.11
2022-09-15T13:29:15.905Z,83.90
2022-09-15T13:32:29.910Z,87.23
2022-09-15T13:35:37.848Z,90.54
2022-09-15T13:38:43.425Z,79.36
2022-09-15T13:41:46.534Z,80.44
2022-09-15T13:44:51.695Z,83.32
2022-09-15T13:48:17.131Z,89.71
2022-09-15T13:51:28.662Z,85.04
2022-09-15T13:54:30.752Z,90.19
2022-09-15T14:00:56.677Z,88.15
2022-09-15T14:04:00.842Z,86.35
2022-09-15T14:07:02.941Z,90.30
2022-09-15T14:10:05.066Z,83.73
2022-09-15T14:13:06.955Z,77.72
2022-09-15T14:16:35.432Z,79.25
2022-09-15T14:19:38.512Z,82.36
2022-09-15T14:22:40.953Z,80.65
2022-09-15T14:25:45.027Z,78.93
2022-09-15T14:29:06.193Z,77.09
2022-09-15T14:32:15.578Z,78.84
2022-09-15T14:35:19.844Z,75.71
2022-09-15T14:38:23.116Z,79.68
2022-09-15T14:41:25.170Z,80.43
2022-09-15T14:47:48.996Z,75.18
2022-09-15T14:51:05.214Z,89.62
2022-09-15T14:54:07.067Z,82.39
2022-09-15T14:57:08.960Z,75.68
2022-09-15T15:00:14.080Z,75.45
2022-09-15T15:03:31.774Z,74.83
2022-09-15T15:06:35.756Z,75.21
2022-09-15T15:09:40.513Z,86.13
2022-09-15T15:12:43.649Z,82.57
2022-09-15T15:15:45.855Z,87.63
2022-09-15T15:18:47.717Z,84.71
2022-09-15T15:21:50.853Z,82.28
2022-09-15T15:24:52.931Z,81.97
2022-09-15T15:27:55.751Z,83.69
2022-09-15T15:31:07.984Z,78.70
2022-09-15T15:34:21.606Z,78.99
2022-09-15T15:37:25.225Z,77.65
2022-09-15T15:40:27.280Z,74.96
2022-09-15T15:43:29.370Z,78.64
2022-09-15T15:46:46.240Z,81.92
2022-09-15T15:50:11.725Z,76.97
2022-09-15T15:53:09.860Z,83.78
2022-09-15T15:56:11.726Z,78.29
2022-09-15T15:59:13.948Z,76.29
2022-09-15T16:02:15.880Z,73.79
2022-09-15T16:05:18.105Z,74.21
2022-09-15T16:08:24.657Z,76.53
2022-09-15T16:11:26.596Z,78.33
2022-09-15T16:14:28.390Z,79.00
2022-09-15T16:17:30.350Z,80.59
2022-09-15T16:20:32.227Z,79.92
2022-09-15T16:23:34.010Z,84.02
2022-09-15T16:26:36.005Z,86.11
2022-09-15T16:29:38.186Z,81.73
2022-09-15T16:32:40.730Z,83.26
2022-09-15T16:36:09.126Z,83.22
2022-09-15T16:39:11.030Z,81.94
2022-09-15T16:42:13.091Z,74.95
2022-09-15T16:45:19.633Z,74.47
2022-09-15T16:48:21.666Z,73.34
2022-09-15T16:51:30.696Z,75.60
2022-09-15T16:54:33.512Z,76.00
2022-09-15T16:57:35.377Z,81.36
2022-09-15T17:00:37.237Z,82.81
2022-09-15T17:03:39.367Z,76.72
2022-09-15T17:06:41.263Z,74.17
2022-09-15T17:09:43.345Z,74.72
2022-09-15T17:12:45.213Z,74.65
2022-09-15T17:15:47.319Z,74.02
2022-09-15T17:18:49.201Z,74.68
2022-09-15T17:21:52.715Z,76.97
2022-09-15T17:24:54.661Z,82.56
2022-09-15T17:27:57.139Z,82.40
2022-09-15T17:30:59.842Z,78.64
2022-09-15T17:34:02.318Z,78.91
2022-09-15T17:37:04.123Z,77.31
2022-09-15T17:40:06.160Z,76.31
2022-09-15T17:43:12.767Z,78.43
2022-09-15T17:46:14.871Z,80.35
2022-09-15T17:49:16.764Z,77.79
2022-09-15T17:52:18.634Z,73.59
2022-09-15T17:55:23.517Z,76.09
2022-09-15T17:58:26.707Z,74.62
2022-09-15T18:01:28.634Z,77.13
2022-09-15T18:04:30.475Z,80.90
2022-09-15T18:07:32.337Z,81.35
2022-09-15T18:10:34.613Z,81.66
2022-09-15T18:13:37.344Z,81.56
2022-09-15T18:16:39.418Z,77.21
2022-09-15T18:19:41.219Z,75.85
2022-09-15T18:22:43.131Z,73.37
2022-09-15T18:25:45.051Z,75.82
2022-09-15T18:28:46.901Z,74.61
2022-09-15T18:31:48.699Z,72.90
2022-09-15T18:34:50.528Z,73.34
2022-09-15T18:37:58.747Z,77.85
2022-09-15T18:41:01.443Z,76.83
2022-09-15T18:44:03.264Z,75.21
2022-09-15T18:47:05.225Z,76.62
2022-09-15T18:50:07.169Z,78.21
2022-09-15T18:53:09.404Z,75.19
2022-09-15T18:56:11.636Z,74.94
2022-09-15T18:59:17.455Z,80.96
2022-09-15T19:02:19.782Z,83.26
2022-09-15T19:05:21.745Z,81.78
2022-09-15T19:08:23.590Z,80.24
2022-09-15T19:11:27.364Z,76.73
2022-09-15T19:14:30.877Z,78.35
2022-09-15T19:17:32.743Z,71.72
2022-09-15T19:20:34.557Z,78.02
2022-09-15T19:23:36.761Z,79.75
2022-09-15T19:26:38.642Z,83.03
2022-09-15T19:29:40.736Z,83.11
2022-09-15T19:32:42.543Z,80.01
2022-09-15T19:35:44.400Z,76.73
2022-09-15T19:38:46.452Z,76.48
2022-09-15T19:41:48.317Z,76.71
2022-09-15T19:44:50.180Z,77.80
2022-09-15T19:47:52.057Z,76.95
2022-09-15T19:50:53.955Z,76.46
2022-09-15T19:53:56.014Z,79.97
2022-09-15T19:56:57.902Z,78.42
2022-09-15T19:59:59.702Z,80.64
2022-09-15T20:03:01.490Z,79.57
2022-09-15T20:06:05.069Z,79.35
2022-09-15T20:09:07.162Z,80.55
2022-09-15T20:12:09.028Z,81.60
2022-09-15T20:15:10.961Z,76.79
2022-09-15T20:18:13.461Z,76.21
2022-09-15T20:21:22.182Z,77.36
2022-09-15T20:24:34.642Z,74.11
2022-09-15T20:27:36.536Z,72.26
2022-09-15T20:30:38.391Z,75.64
2022-09-15T20:33:41.287Z,73.16
2022-09-15T20:36:43.758Z,74.71
2022-09-15T20:39:46.728Z,79.15
2022-09-15T20:42:50.182Z,79.30
2022-09-15T20:45:55.674Z,77.95
2022-09-15T20:48:57.529Z,80.10
2022-09-15T20:51:59.351Z,78.08
2022-09-15T20:55:01.142Z,76.28
2022-09-15T20:58:02.950Z,79.31
2022-09-15T21:01:07.933Z,81.62
2022-09-15T21:04:10.129Z,79.87
2022-09-15T21:07:11.939Z,77.61
2022-09-15T21:10:14.019Z,79.52
2022-09-15T21:13:16.256Z,78.91
2022-09-15T21:16:20.604Z,80.36
2022-09-15T21:19:22.505Z,78.49
2022-09-15T21:22:24.436Z,79.06
2022-09-15T21:25:26.216Z,76.85
2022-09-15T21:28:28.596Z,76.56
2022-09-15T21:31:31.141Z,78.43
2022-09-15T21:34:33.127Z,80.75
2022-09-15T21:37:34.918Z,74.37
2022-09-15T21:40:36.892Z,79.05
2022-09-15T21:43:39.505Z,82.39
2022-09-15T21:46:41.319Z,78.92
2022-09-15T21:49:43.164Z,78.27
2022-09-15T21:52:44.964Z,76.51
2022-09-15T21:55:48.101Z,76.63
2022-09-15T21:58:49.937Z,72.53
2022-09-15T22:01:51.803Z,72.06
2022-09-15T22:04:54.524Z,69.90
2022-09-15T22:08:00.416Z,72.30
2022-09-15T22:11:04.990Z,75.37
2022-09-15T22:14:10.486Z,75.09
2022-09-15T22:17:12.302Z,74.25
2022-09-15T22:20:14.132Z,71.58
2022-09-15T22:23:17.711Z,72.40
2022-09-15T22:26:20.428Z,72.15
2022-09-15T22:29:22.564Z,77.47
2022-09-15T22:32:26.397Z,77.95
2022-09-15T22:35:28.240Z,76.55
2022-09-15T22:38:30.417Z,73.28
2022-09-15T22:41:33.033Z,76.24
2022-09-15T22:44:34.805Z,76.19
2022-09-15T22:47:36.607Z,74.96
2022-09-15T22:50:38.391Z,73.51
2022-09-15T22:53:40.255Z,71.79
2022-09-15T22:56:42.090Z,75.47
2022-09-15T22:59:43.902Z,75.62
2022-09-15T23:02:46.740Z,72.90
2022-09-15T23:05:56.276Z,75.31
2022-09-15T23:08:59.182Z,72.06
2022-09-15T23:12:01.226Z,71.67
2022-09-15T23:15:04.558Z,73.07
2022-09-15T23:18:06.340Z,74.90
2022-09-15T23:21:08.800Z,73.56
2022-09-15T23:24:12.552Z,70.21
2022-09-15T23:27:14.485Z,75.34
2022-09-15T23:30:16.338Z,75.04
2022-09-15T23:33:18.226Z,73.96
2022-09-15T23:36:20.032Z,69.37
2022-09-15T23:39:21.824Z,69.68
2022-09-15T23:42:23.634Z,72.25
2022-09-15T23:45:25.441Z,74.26
2022-09-15T23:48:27.459Z,69.80
2022-09-15T23:51:29.313Z,72.81
2022-09-15T23:54:31.187Z,72.95
2022-09-15T23:57:32.996Z,72.28
